createdAt,value
2023-05-03T00:01:45.186Z,92.40
2023-05-03T00:04:15.817Z,92.10
2023-05-03T00:06:44.962Z,92.20
2023-05-03T00:09:14.398Z,92.30
2023-05-03T00:11:44.273Z,92.30
2023-05-03T00:14:12.705Z,92.30
2023-05-03T00:16:41.145Z,92.30
2023-05-03T00:19:17.694Z,92.20
2023-05-03T00:21:49.235Z,92.30
2023-05-03T00:24:17.548Z,92.40
2023-05-03T00:26:47.211Z,92.30
2023-05-03T00:29:15.966Z,92.40
2023-05-03T00:31:45.556Z,92.40
2023-05-03T00:34:20.881Z,92.50
2023-05-03T00:36:49.223Z,92.50
2023-05-03T00:39:17.612Z,92.30
2023-05-03T00:41:47.382Z,92.30
2023-05-03T00:44:16.240Z,92.40
2023-05-03T00:46:44.712Z,92.30
2023-05-03T00:49:13.253Z,92.40
2023-05-03T00:51:42.302Z,92.50
2023-05-03T00:54:12.234Z,92.50
2023-05-03T00:56:51.196Z,92.50
2023-05-03T00:59:21.920Z,92.60
2023-05-03T01:01:53.812Z,92.60
2023-05-03T01:04:23.435Z,92.90
2023-05-03T01:07:05.171Z,92.70
2023-05-03T01:09:50.604Z,92.70
2023-05-03T01:12:31.997Z,92.80
2023-05-03T01:15:13.252Z,92.80
2023-05-03T01:17:49.665Z,92.70
2023-05-03T01:20:24.900Z,92.70
2023-05-03T01:23:07.485Z,92.70
2023-05-03T01:25:37.281Z,92.70
2023-05-03T01:28:05.739Z,92.60
2023-05-03T01:30:35.594Z,92.70
2023-05-03T01:33:12.344Z,92.80
2023-05-03T01:35:45.736Z,92.80
2023-05-03T01:38:15.250Z,92.70
2023-05-03T01:40:52.009Z,92.80
2023-05-03T01:43:23.347Z,92.90
2023-05-03T01:45:51.920Z,93.00
2023-05-03T01:48:20.917Z,92.90
2023-05-03T01:50:49.268Z,93.00
2023-05-03T01:53:17.774Z,92.90
2023-05-03T01:55:47.572Z,92.80
2023-05-03T01:58:16.121Z,93.00
2023-05-03T02:00:46.498Z,93.30
2023-05-03T02:03:14.934Z,93.00
2023-05-03T02:05:43.357Z,92.90
2023-05-03T02:08:11.748Z,92.90
2023-05-03T02:10:40.091Z,92.90
2023-05-03T02:13:09.980Z,92.80
2023-05-03T02:15:38.388Z,93.00
2023-05-03T02:18:08.716Z,92.90
2023-05-03T02:20:38.142Z,93.00
2023-05-03T02:23:06.995Z,93.00
2023-05-03T02:25:35.470Z,93.00
2023-05-03T02:28:03.954Z,93.00
2023-05-03T02:30:33.827Z,93.00
2023-05-03T02:33:02.458Z,93.20
2023-05-03T02:35:32.287Z,93.10
2023-05-03T02:38:01.231Z,93.40
2023-05-03T02:40:32.822Z,93.20
2023-05-03T02:43:02.564Z,93.60
2023-05-03T02:45:33.029Z,93.20
2023-05-03T02:48:01.642Z,93.60
2023-05-03T02:50:30.062Z,93.20
2023-05-03T02:52:58.594Z,93.30
2023-05-03T02:55:27.080Z,93.20
2023-05-03T02:57:56.208Z,93.20
2023-05-03T03:00:24.758Z,93.30
2023-05-03T03:02:54.655Z,93.30
2023-05-03T03:05:23.561Z,93.40
2023-05-03T03:07:53.069Z,93.40
2023-05-03T03:10:21.944Z,93.40
2023-05-03T03:12:50.715Z,93.30
2023-05-03T03:15:28.135Z,93.30
2023-05-03T03:17:58.428Z,93.30
2023-05-03T03:20:28.037Z,93.40
2023-05-03T03:22:56.808Z,93.40
2023-05-03T03:25:25.312Z,93.30
2023-05-03T03:27:56.648Z,93.40
2023-05-03T03:30:25.028Z,93.40
2023-05-03T03:33:04.218Z,93.40
2023-05-03T03:35:39.196Z,93.50
2023-05-03T03:38:08.473Z,93.50
2023-05-03T03:40:41.405Z,93.50
2023-05-03T03:43:10.233Z,93.50
2023-05-03T03:45:39.231Z,93.50
2023-05-03T03:48:09.324Z,93.60
2023-05-03T03:50:38.374Z,93.60
2023-05-03T03:53:09.301Z,93.70
2023-05-03T03:55:39.054Z,93.50
2023-05-03T03:58:08.780Z,93.60
2023-05-03T04:00:38.183Z,93.60
2023-05-03T04:03:14.284Z,93.70
2023-05-03T04:05:43.155Z,93.70
2023-05-03T04:08:11.641Z,93.70
2023-05-03T04:10:41.412Z,93.70
2023-05-03T04:13:10.417Z,93.70
2023-05-03T04:15:38.847Z,93.70
2023-05-03T04:18:08.825Z,93.70
2023-05-03T04:20:41.236Z,93.80
2023-05-03T04:23:10.549Z,93.90
2023-05-03T04:25:46.566Z,94.20
2023-05-03T04:28:16.195Z,93.90
2023-05-03T04:30:48.394Z,93.90
2023-05-03T04:33:22.300Z,93.90
2023-05-03T04:35:53.728Z,93.90
2023-05-03T04:38:22.238Z,94.00
2023-05-03T04:40:51.272Z,93.90
2023-05-03T04:43:20.256Z,93.90
2023-05-03T04:45:50.577Z,93.90
2023-05-03T04:48:23.134Z,93.90
2023-05-03T04:50:53.197Z,94.00
2023-05-03T04:53:23.680Z,94.10
2023-05-03T04:56:01.717Z,94.10
2023-05-03T04:58:32.944Z,94.10
2023-05-03T05:01:01.313Z,94.10
2023-05-03T05:03:32.524Z,94.40
2023-05-03T05:06:08.261Z,94.20
2023-05-03T05:08:36.656Z,94.20
2023-05-03T05:11:08.212Z,94.20
2023-05-03T05:13:36.970Z,94.20
2023-05-03T05:16:06.014Z,94.10
2023-05-03T05:18:34.937Z,94.30
2023-05-03T05:21:07.084Z,94.20
2023-05-03T05:23:36.965Z,94.30
2023-05-03T05:26:06.442Z,94.30
2023-05-03T05:28:34.968Z,94.40
2023-05-03T05:31:03.421Z,94.30
2023-05-03T05:33:32.985Z,94.30
2023-05-03T05:36:02.269Z,94.30
2023-05-03T05:38:33.974Z,94.30
2023-05-03T05:41:04.544Z,94.30
2023-05-03T05:43:33.597Z,94.30
2023-05-03T05:46:02.081Z,94.40
2023-05-03T05:48:31.094Z,94.40
2023-05-03T05:51:00.158Z,94.50
2023-05-03T05:53:28.805Z,94.50
2023-05-03T05:56:03.032Z,94.90
2023-05-03T05:58:34.244Z,94.70
2023-05-03T06:01:03.802Z,94.60
2023-05-03T06:03:35.765Z,94.70
2023-05-03T06:06:07.111Z,94.70
2023-05-03T06:08:36.323Z,94.60
2023-05-03T06:11:06.345Z,94.60
2023-05-03T06:13:38.428Z,94.80
2023-05-03T06:16:08.551Z,94.80
2023-05-03T06:18:36.874Z,94.80
2023-05-03T06:21:05.774Z,94.80
2023-05-03T06:23:35.280Z,94.90
2023-05-03T06:26:06.606Z,94.90
2023-05-03T06:28:35.934Z,95.00
2023-05-03T06:31:04.396Z,95.30
2023-05-03T06:33:34.303Z,95.00
2023-05-03T06:36:02.664Z,95.00
2023-05-03T06:38:31.033Z,95.00
2023-05-03T06:40:59.369Z,95.10
2023-05-03T06:43:29.069Z,95.10
2023-05-03T06:46:03.330Z,95.20
2023-05-03T06:48:31.948Z,95.10
2023-05-03T06:51:00.452Z,95.20
2023-05-03T06:53:28.997Z,95.10
2023-05-03T06:55:57.473Z,95.20
2023-05-03T06:58:25.892Z,95.20
2023-05-03T07:00:55.696Z,95.20
2023-05-03T07:03:24.895Z,95.20
2023-05-03T07:05:53.379Z,95.30
2023-05-03T07:08:21.705Z,95.30
2023-05-03T07:10:50.398Z,95.30
2023-05-03T07:16:52.793Z,95.30
2023-05-03T07:19:21.757Z,95.30
2023-05-03T07:24:59.718Z,95.30
2023-05-03T07:27:28.270Z,95.30
2023-05-03T07:29:56.598Z,95.40
2023-05-03T07:32:26.492Z,95.60
2023-05-03T07:34:55.186Z,95.30
2023-05-03T07:37:25.011Z,95.30
2023-05-03T07:39:53.784Z,95.30
2023-05-03T07:42:22.192Z,95.30
2023-05-03T07:44:50.583Z,95.30
2023-05-03T07:47:21.600Z,95.30
2023-05-03T07:49:51.339Z,95.00
2023-05-03T07:52:19.677Z,95.20
2023-05-03T07:54:54.329Z,95.20
2023-05-03T07:57:25.251Z,95.20
2023-05-03T07:59:53.546Z,95.20
2023-05-03T08:02:22.583Z,95.20
2023-05-03T08:05:08.585Z,95.30
2023-05-03T08:07:37.019Z,95.40
2023-05-03T08:10:06.271Z,95.30
2023-05-03T08:12:34.747Z,95.30
2023-05-03T08:15:05.074Z,95.20
2023-05-03T08:17:33.539Z,95.20
2023-05-03T08:20:02.266Z,95.20
2023-05-03T08:22:32.610Z,95.10
2023-05-03T08:25:01.377Z,95.10
2023-05-03T08:27:29.866Z,95.00
2023-05-03T08:29:58.272Z,95.00
2023-05-03T08:32:52.616Z,94.90
2023-05-03T08:35:21.218Z,95.00
2023-05-03T08:37:50.969Z,94.90
2023-05-03T08:40:22.893Z,95.20
2023-05-03T08:42:51.608Z,95.20
2023-05-03T08:45:20.492Z,94.90
2023-05-03T08:47:55.291Z,94.80
2023-05-03T08:50:25.692Z,94.80
2023-05-03T08:53:01.510Z,94.80
2023-05-03T08:55:30.035Z,94.70
2023-05-03T08:57:58.502Z,94.70
2023-05-03T09:00:30.470Z,94.70
2023-05-03T09:02:59.861Z,94.60
2023-05-03T09:05:38.714Z,94.60
2023-05-03T09:08:11.910Z,94.60
2023-05-03T09:10:42.137Z,94.60
2023-05-03T09:13:12.160Z,94.50
2023-05-03T09:15:40.915Z,94.40
2023-05-03T09:18:17.612Z,94.40
2023-05-03T09:20:52.760Z,94.50
2023-05-03T09:23:33.921Z,94.40
2023-05-03T09:26:37.301Z,94.20
2023-05-03T09:29:06.589Z,94.20
2023-05-03T09:31:37.365Z,94.00
2023-05-03T09:34:23.113Z,94.00
2023-05-03T09:36:51.464Z,93.90
2023-05-03T09:39:21.580Z,94.00
2023-05-03T09:41:50.502Z,94.00
2023-05-03T09:44:19.404Z,94.10
2023-05-03T09:47:04.318Z,94.10
2023-05-03T09:49:33.039Z,93.80
2023-05-03T09:52:02.555Z,93.80
2023-05-03T09:54:32.587Z,93.80
2023-05-03T09:57:02.471Z,93.70
2023-05-03T09:59:52.155Z,93.60
2023-05-03T10:02:21.867Z,93.60
2023-05-03T10:04:53.326Z,93.60
2023-05-03T10:07:24.327Z,93.40
2023-05-03T10:09:56.834Z,93.20
2023-05-03T10:12:26.070Z,93.20
2023-05-03T10:14:56.197Z,93.30
2023-05-03T10:17:43.522Z,93.30
2023-05-03T10:20:34.790Z,92.90
2023-05-03T10:23:11.402Z,92.80
2023-05-03T10:26:14.112Z,92.70
2023-05-03T10:28:42.515Z,92.90
2023-05-03T10:31:45.572Z,92.80
2023-05-03T10:34:24.717Z,92.70
2023-05-03T10:36:54.428Z,92.80
2023-05-03T10:39:23.324Z,92.80
2023-05-03T10:42:01.611Z,92.90
2023-05-03T10:44:36.357Z,92.60
2023-05-03T10:47:15.661Z,92.60
2023-05-03T10:49:45.594Z,92.50
2023-05-03T10:52:49.658Z,92.30
2023-05-03T10:55:20.859Z,92.50
2023-05-03T10:57:51.145Z,92.30
2023-05-03T11:00:25.736Z,91.90
2023-05-03T11:03:12.499Z,91.90
2023-05-03T11:05:43.489Z,92.00
2023-05-03T11:08:13.998Z,91.90
2023-05-03T11:10:42.955Z,92.00
2023-05-03T11:13:13.341Z,92.00
2023-05-03T11:15:42.230Z,91.90
2023-05-03T11:18:12.503Z,91.80
2023-05-03T11:20:41.057Z,91.70
2023-05-03T11:23:09.489Z,91.80
2023-05-03T11:25:39.288Z,91.80
2023-05-03T11:28:07.681Z,91.60
2023-05-03T11:30:38.418Z,91.40
2023-05-03T11:33:40.928Z,91.30
2023-05-03T11:36:11.138Z,91.10
2023-05-03T11:38:40.423Z,91.40
2023-05-03T11:41:16.570Z,91.20
2023-05-03T11:43:46.162Z,91.10
2023-05-03T11:46:21.667Z,91.40
2023-05-03T11:48:50.485Z,91.10
2023-05-03T11:51:40.383Z,91.30
2023-05-03T11:54:20.868Z,90.90
2023-05-03T11:56:56.703Z,90.90
2023-05-03T11:59:37.135Z,90.90
2023-05-03T12:02:09.380Z,90.60
2023-05-03T12:04:43.082Z,90.70
2023-05-03T12:07:15.176Z,90.50
2023-05-03T12:09:52.638Z,90.40
2023-05-03T12:12:32.490Z,90.40
2023-05-03T12:15:04.290Z,90.60
2023-05-03T12:17:42.526Z,90.20
2023-05-03T12:21:03.837Z,89.80
2023-05-03T12:23:09.828Z,90.00
2023-05-03T12:25:40.318Z,90.20
2023-05-03T12:30:45.771Z,89.70
2023-05-03T12:33:21.752Z,89.70
2023-05-03T12:35:53.405Z,88.60
2023-05-03T12:38:24.195Z,88.80
2023-05-03T12:40:54.546Z,89.00
2023-05-03T12:43:23.167Z,88.20
2023-05-03T12:46:07.809Z,87.90
2023-05-03T12:48:45.851Z,87.80
2023-05-03T12:51:20.045Z,87.50
2023-05-03T12:53:55.253Z,87.90
2023-05-03T12:56:25.432Z,87.90
2023-05-03T13:04:26.543Z,87.70
2023-05-03T13:06:51.754Z,87.00
2023-05-03T13:09:37.118Z,86.90
2023-05-03T13:12:17.417Z,87.30
2023-05-03T13:14:45.910Z,87.30
2023-05-03T13:17:14.649Z,87.10
2023-05-03T13:19:45.429Z,87.30
2023-05-03T13:22:14.346Z,87.10
2023-05-03T13:24:44.671Z,86.90
2023-05-03T13:27:13.444Z,86.90
2023-05-03T13:29:42.095Z,86.30
2023-05-03T13:32:10.664Z,86.30
2023-05-03T13:34:39.106Z,85.60
2023-05-03T13:37:08.793Z,85.20
2023-05-03T13:39:37.194Z,85.00
2023-05-03T13:42:06.169Z,84.90
2023-05-03T13:44:34.632Z,84.90
2023-05-03T13:47:03.429Z,84.10
2023-05-03T13:49:31.806Z,83.70
2023-05-03T13:52:00.146Z,83.80
2023-05-03T13:54:31.563Z,83.60
2023-05-03T13:57:01.356Z,82.50
2023-05-03T13:59:29.817Z,83.00
2023-05-03T14:02:00.115Z,83.10
2023-05-03T14:04:28.887Z,83.00
2023-05-03T14:06:58.713Z,82.40
2023-05-03T14:09:27.535Z,81.80
2023-05-03T14:11:57.744Z,82.10
2023-05-03T14:14:28.690Z,81.30
2023-05-03T14:16:57.054Z,80.60
2023-05-03T14:19:25.572Z,80.80
2023-05-03T14:22:01.033Z,80.80
2023-05-03T14:24:29.367Z,80.50
2023-05-03T14:27:01.448Z,80.60
2023-05-03T14:29:29.769Z,79.90
2023-05-03T14:31:58.182Z,79.70
2023-05-03T14:34:26.607Z,79.60
2023-05-03T14:36:55.227Z,79.90
2023-05-03T14:39:23.595Z,79.80
2023-05-03T14:41:52.059Z,79.40
2023-05-03T14:44:21.832Z,79.40
2023-05-03T14:46:50.345Z,78.70
2023-05-03T14:49:33.849Z,78.60
2023-05-03T14:52:02.172Z,78.20
2023-05-03T14:54:30.494Z,78.40
2023-05-03T14:56:59.024Z,78.20
2023-05-03T14:59:28.784Z,78.40
2023-05-03T15:01:57.224Z,76.90
2023-05-03T15:04:25.864Z,77.50
2023-05-03T15:06:54.222Z,78.00
2023-05-03T15:09:22.888Z,77.20
2023-05-03T15:11:51.225Z,76.80
2023-05-03T15:14:19.672Z,76.30
2023-05-03T15:16:49.837Z,76.40
2023-05-03T15:19:18.199Z,75.70
2023-05-03T15:21:47.637Z,75.20
2023-05-03T15:24:16.256Z,75.60
2023-05-03T15:26:44.843Z,75.10
2023-05-03T15:29:13.324Z,75.10
2023-05-03T15:31:42.845Z,74.70
2023-05-03T15:34:12.769Z,73.80
2023-05-03T15:36:41.704Z,73.70
2023-05-03T15:39:10.236Z,73.00
2023-05-03T15:41:41.617Z,73.00
2023-05-03T15:44:10.156Z,72.40
2023-05-03T15:46:40.830Z,72.90
2023-05-03T15:49:12.824Z,72.10
2023-05-03T15:51:41.262Z,71.50
2023-05-03T15:54:09.586Z,71.30
2023-05-03T15:56:38.716Z,71.50
2023-05-03T15:59:07.554Z,71.40
2023-05-03T16:01:37.279Z,71.10
2023-05-03T16:04:06.757Z,71.30
2023-05-03T16:06:36.513Z,71.10
2023-05-03T16:09:06.525Z,70.60
2023-05-03T16:11:35.695Z,70.80
2023-05-03T16:14:04.920Z,70.60
2023-05-03T16:16:33.365Z,70.20
2023-05-03T16:19:01.729Z,70.00
2023-05-03T16:21:30.088Z,70.50
2023-05-03T16:24:00.372Z,69.90
2023-05-03T16:26:28.805Z,69.50
2023-05-03T16:28:57.332Z,69.10
2023-05-03T16:31:25.812Z,69.40
2023-05-03T16:33:54.189Z,68.90
2023-05-03T16:36:22.585Z,69.00
2023-05-03T16:38:50.954Z,69.50
2023-05-03T16:41:21.043Z,69.00
2023-05-03T16:43:49.540Z,68.80
2023-05-03T16:46:17.905Z,68.70
2023-05-03T16:48:46.339Z,68.20
2023-05-03T16:51:14.673Z,68.00
2023-05-03T16:53:42.995Z,68.60
2023-05-03T16:56:11.653Z,68.00
2023-05-03T16:58:41.301Z,67.30
2023-05-03T17:01:09.790Z,67.20
2023-05-03T17:03:38.310Z,67.50
2023-05-03T17:06:07.583Z,67.70
2023-05-03T17:08:36.393Z,67.40
2023-05-03T17:11:10.497Z,68.00
2023-05-03T17:13:41.511Z,66.40
2023-05-03T17:16:12.761Z,67.10
2023-05-03T17:18:41.430Z,66.90
2023-05-03T17:21:11.180Z,66.40
2023-05-03T17:23:40.250Z,66.20
2023-05-03T17:26:11.087Z,65.80
2023-05-03T17:28:41.489Z,66.00
2023-05-03T17:31:09.855Z,65.40
2023-05-03T17:33:38.190Z,65.80
2023-05-03T17:36:07.289Z,65.60
2023-05-03T17:38:36.143Z,66.00
2023-05-03T17:41:06.403Z,65.20
2023-05-03T17:43:34.789Z,65.30
2023-05-03T17:46:20.387Z,65.60
2023-05-03T17:48:50.646Z,64.90
2023-05-03T17:51:18.989Z,65.20
2023-05-03T17:53:48.081Z,65.00
2023-05-03T17:56:18.501Z,64.60
2023-05-03T17:58:47.658Z,65.10
2023-05-03T18:01:17.530Z,66.00
2023-05-03T18:03:45.928Z,65.90
2023-05-03T18:06:14.938Z,65.60
2023-05-03T18:08:43.469Z,65.40
2023-05-03T18:11:11.766Z,65.60
2023-05-03T18:13:41.315Z,65.70
2023-05-03T18:16:10.329Z,65.60
2023-05-03T18:18:40.134Z,66.20
2023-05-03T18:21:10.473Z,66.20
2023-05-03T18:23:39.874Z,66.20
2023-05-03T18:26:08.792Z,66.30
2023-05-03T18:28:39.846Z,66.80
2023-05-03T18:31:08.483Z,66.50
2023-05-03T18:33:37.124Z,66.90
2023-05-03T18:36:11.685Z,67.40
2023-05-03T18:38:40.154Z,67.70
2023-05-03T18:41:14.161Z,68.80
2023-05-03T18:43:43.347Z,69.30
2023-05-03T18:46:12.329Z,68.60
2023-05-03T18:48:41.488Z,68.70
2023-05-03T18:51:11.199Z,69.70
2023-05-03T18:53:39.474Z,70.50
2023-05-03T18:56:07.915Z,70.50
2023-05-03T18:58:36.194Z,70.30
2023-05-03T19:01:05.938Z,70.90
2023-05-03T19:03:34.590Z,71.20
2023-05-03T19:06:04.193Z,71.40
2023-05-03T19:08:33.980Z,71.60
2023-05-03T19:11:09.239Z,70.60
2023-05-03T19:13:37.700Z,70.90
2023-05-03T19:16:06.713Z,71.10
2023-05-03T19:18:37.124Z,71.70
2023-05-03T19:21:05.970Z,71.10
2023-05-03T19:23:36.043Z,71.30
2023-05-03T19:26:04.502Z,70.60
2023-05-03T19:28:32.879Z,71.20
2023-05-03T19:31:04.833Z,71.30
2023-05-03T19:33:33.869Z,72.20
2023-05-03T19:36:06.409Z,73.10
2023-05-03T19:38:36.766Z,72.70
2023-05-03T19:41:08.327Z,73.70
2023-05-03T19:43:36.915Z,73.50
2023-05-03T19:46:05.482Z,71.80
2023-05-03T19:48:34.296Z,73.70
2023-05-03T19:51:05.210Z,73.50
2023-05-03T19:53:35.108Z,72.40
2023-05-03T19:56:04.194Z,73.90
2023-05-03T19:58:33.123Z,72.30
2023-05-03T20:01:01.802Z,73.60
2023-05-03T20:03:30.344Z,72.70
2023-05-03T20:05:58.901Z,74.50
2023-05-03T20:08:27.295Z,74.90
2023-05-03T20:10:57.111Z,75.20
2023-05-03T20:13:27.706Z,74.00
2023-05-03T20:15:56.569Z,73.90
2023-05-03T20:18:25.202Z,75.70
2023-05-03T20:20:53.770Z,76.30
2023-05-03T20:23:22.288Z,74.40
2023-05-03T20:25:50.776Z,74.30
2023-05-03T20:28:20.507Z,74.30
2023-05-03T20:30:48.934Z,76.50
2023-05-03T20:33:17.337Z,76.20
2023-05-03T20:35:45.970Z,76.40
2023-05-03T20:38:14.499Z,76.40
2023-05-03T20:40:42.931Z,74.90
2023-05-03T20:43:11.313Z,75.20
2023-05-03T20:45:41.377Z,75.30
2023-05-03T20:48:09.935Z,76.00
2023-05-03T20:50:38.350Z,74.70
2023-05-03T20:53:06.820Z,77.30
2023-05-03T20:55:35.206Z,76.90
2023-05-03T20:58:07.054Z,76.50
2023-05-03T21:00:35.517Z,76.40
2023-05-03T21:03:06.578Z,76.80
2023-05-03T21:05:42.493Z,76.70
2023-05-03T21:08:10.911Z,75.90
2023-05-03T21:10:39.570Z,78.10
2023-05-03T21:13:08.084Z,76.20
2023-05-03T21:15:38.420Z,77.00
2023-05-03T21:18:08.327Z,78.50
2023-05-03T21:20:37.749Z,76.90
2023-05-03T21:23:06.596Z,78.80
2023-05-03T21:25:35.155Z,79.30
2023-05-03T21:28:03.696Z,77.80
2023-05-03T21:30:32.226Z,77.90
2023-05-03T21:33:00.820Z,77.60
2023-05-03T21:35:30.730Z,77.80
2023-05-03T21:37:59.126Z,78.50
2023-05-03T21:40:28.221Z,78.50
2023-05-03T21:42:56.793Z,78.30
2023-05-03T21:45:25.587Z,78.50
2023-05-03T21:47:53.957Z,79.40
2023-05-03T21:50:23.663Z,79.60
2023-05-03T21:52:53.587Z,79.40
2023-05-03T21:55:22.236Z,79.00
2023-05-03T21:57:51.423Z,80.40
2023-05-03T22:00:20.984Z,78.90
2023-05-03T22:02:49.945Z,80.00
2023-05-03T22:05:18.670Z,81.10
2023-05-03T22:07:48.689Z,81.60
2023-05-03T22:10:18.910Z,81.40
2023-05-03T22:12:47.844Z,82.10
2023-05-03T22:15:17.080Z,80.40
2023-05-03T22:17:45.565Z,79.80
2023-05-03T22:20:14.368Z,80.10
2023-05-03T22:22:42.742Z,81.40
2023-05-03T22:25:11.403Z,80.70
2023-05-03T22:27:41.244Z,81.90
2023-05-03T22:30:11.243Z,80.60
2023-05-03T22:32:39.738Z,82.90
2023-05-03T22:35:09.426Z,82.10
2023-05-03T22:37:38.038Z,82.60
2023-05-03T22:40:08.685Z,82.20
2023-05-03T22:42:37.327Z,83.20
2023-05-03T22:45:08.924Z,82.70
2023-05-03T22:47:37.523Z,83.50
2023-05-03T22:50:07.664Z,81.30
2023-05-03T22:52:36.088Z,83.00
2023-05-03T22:55:04.892Z,82.00
2023-05-03T22:57:34.585Z,83.30
2023-05-03T23:00:04.500Z,81.70
2023-05-03T23:02:34.893Z,82.10
2023-05-03T23:05:03.475Z,81.40
2023-05-03T23:07:31.945Z,83.40
2023-05-03T23:10:05.107Z,82.60
2023-05-03T23:12:34.018Z,84.70
2023-05-03T23:15:02.524Z,83.00
2023-05-03T23:17:31.572Z,82.20
2023-05-03T23:20:01.520Z,82.20
2023-05-03T23:22:29.982Z,82.90
2023-05-03T23:24:59.115Z,82.80
2023-05-03T23:27:27.583Z,83.60
2023-05-03T23:29:56.563Z,83.10
2023-05-03T23:32:25.652Z,84.10
2023-05-03T23:34:54.606Z,83.00
2023-05-03T23:37:24.516Z,83.50
2023-05-03T23:39:53.641Z,83.40
2023-05-03T23:42:22.354Z,83.50
2023-05-03T23:44:55.149Z,83.40
2023-05-03T23:47:24.773Z,83.80
2023-05-03T23:49:53.439Z,84.30
2023-05-03T23:52:23.462Z,84.90
2023-05-03T23:54:53.432Z,85.30
2023-05-03T23:57:22.138Z,83.90
2023-05-03T23:59:50.719Z,85.20
